BAW425 LEMG-EGLL
Flight info
| Callsign | BAW425 |
|---|---|
| Flight time | 2h 13m |
| Altitude | 36000 |
| Route | BLN DCT MORAL DCT BEXID DCT VTB N867 NENEM DCT PEXOD DCT YURZI UL14 TEPRA UN867 TERPO UP87 ROXOG |
| Aircraft | A320/M-SDE3FGHIRWY/LB1 |
Departure
| Time | 2026-05-04 13:16 |
|---|---|
| Airport | Málaga-Costa del Sol Airport (LEMG) |
Arrival
| Time | 2026-05-04 15:30 |
|---|---|
| Airport | London Heathrow Airport (EGLL) |
| Time | Latitude | Longitude | Altitude | Speed | Heading |
|---|---|---|---|---|---|
| 2026-05-04 12:49 | 36.67347 | -4.49124 | 45 ft | 0 kts | 104° |
| 2026-05-04 13:07 | 36.67349 | -4.49137 | 43 ft | 2 kts | 104° |
| 2026-05-04 13:07 | 36.67354 | -4.49158 | 41 ft | 2 kts | 104° |
| 2026-05-04 13:07 | 36.67357 | -4.49178 | 43 ft | 3 kts | 109° |
| 2026-05-04 13:08 | 36.67366 | -4.49198 | 39 ft | 3 kts | 146° |
| 2026-05-04 13:08 | 36.67383 | -4.49206 | 42 ft | 3 kts | 183° |
| 2026-05-04 13:08 | 36.67387 | -4.49206 | 42 ft | 0 kts | 186° |
| 2026-05-04 13:09 | 36.67381 | -4.49209 | 43 ft | 3 kts | 194° |
| 2026-05-04 13:09 | 36.67348 | -4.49222 | 43 ft | 7 kts | 199° |
| 2026-05-04 13:10 | 36.67290 | -4.49253 | 45 ft | 11 kts | 216° |
| 2026-05-04 13:10 | 36.67295 | -4.49343 | 43 ft | 14 kts | 311° |
| 2026-05-04 13:10 | 36.67367 | -4.49444 | 47 ft | 14 kts | 312° |
| 2026-05-04 13:10 | 36.67442 | -4.49550 | 47 ft | 19 kts | 310° |
| 2026-05-04 13:11 | 36.67528 | -4.49676 | 49 ft | 19 kts | 315° |
| 2026-05-04 13:11 | 36.67612 | -4.49788 | 52 ft | 17 kts | 310° |
| 2026-05-04 13:11 | 36.67691 | -4.49889 | 53 ft | 14 kts | 339° |
| 2026-05-04 13:11 | 36.67798 | -4.49852 | 52 ft | 19 kts | 31° |
| 2026-05-04 13:12 | 36.67860 | -4.49777 | 52 ft | 13 kts | 37° |
| 2026-05-04 13:12 | 36.67950 | -4.49686 | 48 ft | 20 kts | 41° |
| 2026-05-04 13:12 | 36.68067 | -4.49555 | 48 ft | 25 kts | 41° |
| 2026-05-04 13:12 | 36.68210 | -4.49400 | 47 ft | 29 kts | 40° |
| 2026-05-04 13:13 | 36.68282 | -4.49293 | 51 ft | 16 kts | 84° |
| 2026-05-04 13:13 | 36.68233 | -4.49151 | 47 ft | 21 kts | 118° |
| 2026-05-04 13:13 | 36.68157 | -4.48972 | 46 ft | 26 kts | 117° |
| 2026-05-04 13:13 | 36.68066 | -4.48754 | 40 ft | 22 kts | 117° |
| 2026-05-04 13:14 | 36.67999 | -4.48596 | 42 ft | 23 kts | 117° |
| 2026-05-04 13:14 | 36.67920 | -4.48409 | 42 ft | 26 kts | 118° |
| 2026-05-04 13:14 | 36.67834 | -4.48211 | 44 ft | 24 kts | 117° |
| 2026-05-04 13:14 | 36.67757 | -4.48020 | 43 ft | 21 kts | 117° |
| 2026-05-04 13:15 | 36.67690 | -4.47853 | 35 ft | 15 kts | 100° |
| 2026-05-04 13:15 | 36.67738 | -4.47740 | 37 ft | 15 kts | 56° |
| 2026-05-04 13:15 | 36.67808 | -4.47704 | 36 ft | 12 kts | 327° |
| 2026-05-04 13:15 | 36.67861 | -4.47825 | 39 ft | 32 kts | 297° |
| 2026-05-04 13:16 | 36.68075 | -4.48337 | 39 ft | 99 kts | 298° |
| 2026-05-04 13:16 | 36.68472 | -4.49272 | 51 ft | 147 kts | 298° |
| 2026-05-04 13:16 | 36.68978 | -4.50510 | 368 ft | 161 kts | 293° |
| 2026-05-04 13:16 | 36.69579 | -4.51683 | 1067 ft | 163 kts | 309° |
| 2026-05-04 13:17 | 36.70369 | -4.52720 | 1710 ft | 165 kts | 311° |
| 2026-05-04 13:17 | 36.71172 | -4.53736 | 2378 ft | 163 kts | 313° |
| 2026-05-04 13:17 | 36.71992 | -4.54722 | 3036 ft | 165 kts | 315° |
| 2026-05-04 13:17 | 36.72859 | -4.55733 | 3410 ft | 181 kts | 314° |
| 2026-05-04 13:18 | 36.73779 | -4.56956 | 3614 ft | 206 kts | 311° |
| 2026-05-04 13:18 | 36.74770 | -4.58314 | 4175 ft | 214 kts | 313° |
| 2026-05-04 13:18 | 36.75979 | -4.59416 | 4860 ft | 219 kts | 335° |
| 2026-05-04 13:18 | 36.77434 | -4.60028 | 5573 ft | 223 kts | 341° |
| 2026-05-04 13:19 | 36.78933 | -4.60584 | 6251 ft | 226 kts | 341° |
| 2026-05-04 13:19 | 36.79949 | -4.60903 | 6686 ft | 230 kts | 350° |
| 2026-05-04 13:19 | 36.82107 | -4.60568 | 7434 ft | 248 kts | 20° |
| 2026-05-04 13:19 | 36.83571 | -4.59337 | 7796 ft | 267 kts | 41° |
| 2026-05-04 13:20 | 36.84965 | -4.57756 | 8441 ft | 274 kts | 39° |
| 2026-05-04 13:20 | 36.86407 | -4.56152 | 9144 ft | 281 kts | 38° |
| 2026-05-04 13:20 | 36.87884 | -4.54525 | 9826 ft | 286 kts | 38° |
| 2026-05-04 13:20 | 36.89388 | -4.52873 | 10441 ft | 290 kts | 38° |
| 2026-05-04 13:21 | 36.90917 | -4.51193 | 11092 ft | 295 kts | 38° |
| 2026-05-04 13:21 | 36.92464 | -4.49494 | 11742 ft | 298 kts | 38° |
| 2026-05-04 13:21 | 36.94030 | -4.47767 | 12369 ft | 302 kts | 38° |
| 2026-05-04 13:21 | 36.95621 | -4.46008 | 13005 ft | 307 kts | 38° |
| 2026-05-04 13:22 | 36.97236 | -4.44223 | 13622 ft | 311 kts | 38° |
| 2026-05-04 13:22 | 36.98956 | -4.42569 | 14086 ft | 318 kts | 28° |
| 2026-05-04 13:22 | 37.00877 | -4.41030 | 14215 ft | 338 kts | 28° |
| 2026-05-04 13:22 | 37.02932 | -4.39417 | 14333 ft | 358 kts | 28° |
| 2026-05-04 13:23 | 37.05098 | -4.37723 | 14463 ft | 377 kts | 28° |
| 2026-05-04 13:23 | 37.07364 | -4.35942 | 14720 ft | 390 kts | 28° |
| 2026-05-04 13:23 | 37.09674 | -4.34109 | 15190 ft | 396 kts | 29° |
| 2026-05-04 13:23 | 37.12015 | -4.32243 | 15707 ft | 400 kts | 29° |
| 2026-05-04 13:24 | 37.14369 | -4.30362 | 16242 ft | 404 kts | 28° |
| 2026-05-04 13:24 | 37.16745 | -4.28460 | 16772 ft | 407 kts | 28° |
| 2026-05-04 13:24 | 37.18333 | -4.27191 | 17123 ft | 409 kts | 28° |
| 2026-05-04 13:25 | 37.23183 | -4.23317 | 18161 ft | 417 kts | 28° |
| 2026-05-04 13:25 | 37.26446 | -4.20703 | 18777 ft | 422 kts | 28° |
| 2026-05-04 13:25 | 37.28935 | -4.18712 | 19268 ft | 426 kts | 28° |
| 2026-05-04 13:25 | 37.31441 | -4.16707 | 19772 ft | 430 kts | 28° |
| 2026-05-04 13:26 | 37.33154 | -4.15336 | 20119 ft | 432 kts | 28° |
| 2026-05-04 13:26 | 37.35700 | -4.13296 | 20604 ft | 436 kts | 28° |
| 2026-05-04 13:26 | 37.38265 | -4.11235 | 21064 ft | 440 kts | 28° |
| 2026-05-04 13:26 | 37.40820 | -4.09179 | 21499 ft | 444 kts | 28° |
| 2026-05-04 13:27 | 37.43432 | -4.07080 | 21969 ft | 447 kts | 28° |
| 2026-05-04 13:27 | 37.46063 | -4.04966 | 22368 ft | 450 kts | 28° |
| 2026-05-04 13:27 | 37.48714 | -4.02831 | 22782 ft | 454 kts | 28° |
| 2026-05-04 13:27 | 37.51381 | -4.00682 | 23217 ft | 457 kts | 28° |
| 2026-05-04 13:28 | 37.54075 | -3.98510 | 23626 ft | 460 kts | 28° |
| 2026-05-04 13:28 | 37.56785 | -3.96322 | 23960 ft | 463 kts | 28° |
| 2026-05-04 13:28 | 37.59505 | -3.94125 | 24303 ft | 466 kts | 28° |
| 2026-05-04 13:28 | 37.62213 | -3.91934 | 24617 ft | 469 kts | 28° |
| 2026-05-04 13:29 | 37.64964 | -3.89707 | 24974 ft | 471 kts | 28° |
| 2026-05-04 13:29 | 37.67733 | -3.87463 | 25314 ft | 474 kts | 28° |
| 2026-05-04 13:29 | 37.70517 | -3.85203 | 25657 ft | 476 kts | 28° |
| 2026-05-04 13:29 | 37.73308 | -3.82938 | 25990 ft | 479 kts | 28° |
| 2026-05-04 13:30 | 37.76118 | -3.80655 | 26347 ft | 481 kts | 28° |
| 2026-05-04 13:30 | 37.78949 | -3.78355 | 26642 ft | 484 kts | 28° |
| 2026-05-04 13:30 | 37.81807 | -3.76079 | 26956 ft | 484 kts | 24° |
| 2026-05-04 13:30 | 37.84820 | -3.74223 | 27266 ft | 480 kts | 15° |
| 2026-05-04 13:31 | 37.87969 | -3.72894 | 27578 ft | 477 kts | 10° |
| 2026-05-04 13:31 | 37.91167 | -3.71686 | 27885 ft | 480 kts | 10° |
| 2026-05-04 13:31 | 37.94373 | -3.70473 | 28202 ft | 482 kts | 10° |
| 2026-05-04 13:31 | 37.97548 | -3.69268 | 28525 ft | 483 kts | 10° |
| 2026-05-04 13:32 | 38.00771 | -3.68036 | 28960 ft | 483 kts | 10° |
| 2026-05-04 13:32 | 38.03978 | -3.66804 | 29392 ft | 482 kts | 10° |
| 2026-05-04 13:32 | 38.07188 | -3.65573 | 29845 ft | 481 kts | 10° |
| 2026-05-04 13:32 | 38.10391 | -3.64345 | 30261 ft | 481 kts | 10° |
| 2026-05-04 13:33 | 38.13594 | -3.63135 | 30629 ft | 478 kts | 7° |
| 2026-05-04 13:33 | 38.16826 | -3.62343 | 30979 ft | 469 kts | 359° |
| 2026-05-04 13:33 | 38.20070 | -3.62012 | 31347 ft | 466 kts | 356° |
| 2026-05-04 13:33 | 38.23305 | -3.61710 | 31711 ft | 466 kts | 356° |
| 2026-05-04 13:34 | 38.26536 | -3.61400 | 32089 ft | 465 kts | 356° |
| 2026-05-04 13:34 | 38.29763 | -3.61084 | 32464 ft | 465 kts | 356° |
| 2026-05-04 13:34 | 38.32987 | -3.60767 | 32844 ft | 465 kts | 356° |
| 2026-05-04 13:34 | 38.36216 | -3.60451 | 33228 ft | 464 kts | 356° |
| 2026-05-04 13:35 | 38.39426 | -3.60141 | 33608 ft | 464 kts | 356° |
| 2026-05-04 13:35 | 38.45863 | -3.59516 | 34269 ft | 463 kts | 356° |
| 2026-05-04 13:35 | 38.49076 | -3.59203 | 34565 ft | 462 kts | 356° |
| 2026-05-04 13:36 | 38.52243 | -3.58894 | 34845 ft | 462 kts | 356° |
| 2026-05-04 13:36 | 38.55448 | -3.58581 | 35119 ft | 461 kts | 356° |
| 2026-05-04 13:36 | 38.58646 | -3.58270 | 35388 ft | 461 kts | 356° |
| 2026-05-04 13:36 | 38.61838 | -3.57960 | 35646 ft | 460 kts | 356° |
| 2026-05-04 13:37 | 38.65034 | -3.57650 | 35891 ft | 460 kts | 356° |
| 2026-05-04 13:37 | 38.71469 | -3.57026 | 35976 ft | 469 kts | 356° |
| 2026-05-04 13:38 | 38.78021 | -3.56394 | 35972 ft | 473 kts | 357° |
| 2026-05-04 13:38 | 38.84602 | -3.55739 | 35974 ft | 474 kts | 357° |
| 2026-05-04 13:39 | 38.91192 | -3.55079 | 35968 ft | 474 kts | 357° |
| 2026-05-04 13:39 | 38.97777 | -3.54421 | 35981 ft | 474 kts | 357° |
| 2026-05-04 13:40 | 39.04363 | -3.53780 | 35979 ft | 475 kts | 357° |
| 2026-05-04 13:40 | 39.10920 | -3.53134 | 35985 ft | 475 kts | 357° |
| 2026-05-04 13:41 | 39.17509 | -3.52480 | 35988 ft | 476 kts | 357° |
| 2026-05-04 13:41 | 39.24109 | -3.51822 | 35992 ft | 475 kts | 357° |
| 2026-05-04 13:42 | 39.34005 | -3.50843 | 36001 ft | 475 kts | 357° |
| 2026-05-04 13:42 | 39.40608 | -3.50183 | 35987 ft | 475 kts | 357° |
| 2026-05-04 13:43 | 39.47201 | -3.49517 | 35985 ft | 475 kts | 357° |
| 2026-05-04 13:43 | 39.53800 | -3.48853 | 35984 ft | 475 kts | 357° |
| 2026-05-04 13:44 | 39.60388 | -3.48196 | 35985 ft | 475 kts | 357° |
| 2026-05-04 13:44 | 39.66945 | -3.47534 | 35982 ft | 475 kts | 357° |
| 2026-05-04 13:45 | 39.73540 | -3.46864 | 35985 ft | 475 kts | 357° |
| 2026-05-04 13:45 | 39.80128 | -3.46124 | 35985 ft | 477 kts | 360° |
| 2026-05-04 13:46 | 39.86723 | -3.44884 | 35984 ft | 479 kts | 3° |
| 2026-05-04 13:46 | 39.93305 | -3.43407 | 35986 ft | 479 kts | 3° |
| 2026-05-04 13:47 | 39.99876 | -3.42002 | 35989 ft | 478 kts | 2° |
| 2026-05-04 13:47 | 40.06406 | -3.40702 | 35988 ft | 477 kts | 2° |
| 2026-05-04 13:48 | 40.12973 | -3.39411 | 35983 ft | 477 kts | 2° |
| 2026-05-04 13:48 | 40.19522 | -3.38097 | 35980 ft | 477 kts | 2° |
| 2026-05-04 13:49 | 40.26096 | -3.36765 | 35987 ft | 477 kts | 2° |
| 2026-05-04 13:49 | 40.32653 | -3.35437 | 35986 ft | 476 kts | 2° |
| 2026-05-04 13:50 | 40.39166 | -3.34116 | 35993 ft | 476 kts | 2° |
| 2026-05-04 13:50 | 40.45721 | -3.32774 | 35994 ft | 476 kts | 2° |
| 2026-05-04 13:51 | 40.52275 | -3.31440 | 35992 ft | 476 kts | 3° |
| 2026-05-04 13:51 | 40.58836 | -3.30107 | 35986 ft | 476 kts | 3° |
| 2026-05-04 13:52 | 40.68669 | -3.28100 | 35983 ft | 476 kts | 3° |
| 2026-05-04 13:53 | 40.75176 | -3.26767 | 35981 ft | 476 kts | 3° |
| 2026-05-04 13:53 | 40.81731 | -3.25417 | 35983 ft | 476 kts | 3° |
| 2026-05-04 13:54 | 40.91562 | -3.23340 | 35983 ft | 477 kts | 4° |
| 2026-05-04 13:55 | 41.01379 | -3.21096 | 35981 ft | 477 kts | 5° |
| 2026-05-04 13:55 | 41.11141 | -3.18889 | 35980 ft | 477 kts | 5° |
| 2026-05-04 13:56 | 41.17701 | -3.17421 | 35988 ft | 477 kts | 5° |
| 2026-05-04 13:57 | 41.27539 | -3.15206 | 35992 ft | 478 kts | 5° |
| 2026-05-04 13:58 | 41.40657 | -3.12237 | 36002 ft | 478 kts | 5° |
| 2026-05-04 13:58 | 41.50477 | -3.09999 | 36002 ft | 477 kts | 5° |
| 2026-05-04 13:59 | 41.57032 | -3.08511 | 36006 ft | 477 kts | 5° |
| 2026-05-04 14:00 | 41.66870 | -3.06271 | 35996 ft | 478 kts | 6° |
| 2026-05-04 14:00 | 41.76668 | -3.04021 | 36001 ft | 478 kts | 6° |
| 2026-05-04 14:01 | 41.83227 | -3.02511 | 36004 ft | 478 kts | 6° |
| 2026-05-04 14:02 | 41.93062 | -3.00242 | 36000 ft | 478 kts | 6° |
| 2026-05-04 14:02 | 41.99625 | -2.98732 | 36006 ft | 478 kts | 6° |
| 2026-05-04 14:03 | 42.06141 | -2.97221 | 36011 ft | 478 kts | 6° |
| 2026-05-04 14:03 | 42.12696 | -2.95691 | 36007 ft | 478 kts | 6° |
| 2026-05-04 14:04 | 42.22524 | -2.93400 | 36009 ft | 478 kts | 6° |
| 2026-05-04 14:04 | 42.29098 | -2.91871 | 36007 ft | 478 kts | 6° |
| 2026-05-04 14:05 | 42.38930 | -2.89579 | 36017 ft | 478 kts | 6° |
| 2026-05-04 14:06 | 42.45499 | -2.88248 | 36019 ft | 475 kts | 359° |
| 2026-05-04 14:06 | 42.52065 | -2.88510 | 36023 ft | 471 kts | 353° |
| 2026-05-04 14:07 | 42.58583 | -2.88927 | 36028 ft | 472 kts | 354° |
| 2026-05-04 14:07 | 42.65151 | -2.89346 | 36037 ft | 472 kts | 354° |
| 2026-05-04 14:08 | 42.71715 | -2.89760 | 36044 ft | 472 kts | 354° |
| 2026-05-04 14:08 | 42.78285 | -2.90185 | 36049 ft | 472 kts | 354° |
| 2026-05-04 14:09 | 42.88136 | -2.90824 | 36050 ft | 472 kts | 354° |
| 2026-05-04 14:10 | 42.97930 | -2.91461 | 36053 ft | 472 kts | 354° |
| 2026-05-04 14:10 | 43.04504 | -2.91888 | 36060 ft | 472 kts | 354° |
| 2026-05-04 14:11 | 43.11070 | -2.92313 | 36051 ft | 472 kts | 354° |
| 2026-05-04 14:11 | 43.20921 | -2.92962 | 36059 ft | 472 kts | 354° |
| 2026-05-04 14:12 | 43.26370 | -2.93324 | 36053 ft | 472 kts | 354° |
| 2026-05-04 14:13 | 43.36067 | -2.95189 | 36063 ft | 468 kts | 345° |
| 2026-05-04 14:13 | 43.42408 | -2.96992 | 36053 ft | 468 kts | 345° |
| 2026-05-04 14:14 | 43.48781 | -2.98799 | 36049 ft | 468 kts | 345° |
| 2026-05-04 14:14 | 43.58343 | -3.01524 | 36044 ft | 468 kts | 345° |
| 2026-05-04 14:15 | 43.71115 | -3.05192 | 36037 ft | 468 kts | 345° |
| 2026-05-04 14:16 | 43.80653 | -3.07947 | 36028 ft | 469 kts | 345° |
| 2026-05-04 14:17 | 43.90243 | -3.10710 | 36023 ft | 469 kts | 345° |
| 2026-05-04 14:18 | 43.99834 | -3.13476 | 36019 ft | 469 kts | 345° |
| 2026-05-04 14:18 | 44.06299 | -3.14796 | 36018 ft | 473 kts | 358° |
| 2026-05-04 14:19 | 44.12888 | -3.14226 | 36015 ft | 474 kts | 2° |
| 2026-05-04 14:19 | 44.19473 | -3.13545 | 36016 ft | 475 kts | 2° |
| 2026-05-04 14:20 | 44.26030 | -3.12880 | 36017 ft | 475 kts | 2° |
| 2026-05-04 14:20 | 44.32625 | -3.12194 | 36012 ft | 475 kts | 2° |
| 2026-05-04 14:21 | 44.42526 | -3.11155 | 36015 ft | 475 kts | 2° |
| 2026-05-04 14:21 | 44.49117 | -3.10472 | 36013 ft | 475 kts | 2° |
| 2026-05-04 14:22 | 44.55716 | -3.09788 | 36014 ft | 475 kts | 2° |
| 2026-05-04 14:22 | 44.62311 | -3.09100 | 36009 ft | 475 kts | 2° |
| 2026-05-04 14:23 | 44.72200 | -3.08057 | 36013 ft | 475 kts | 2° |
| 2026-05-04 14:24 | 44.78808 | -3.07358 | 36010 ft | 476 kts | 3° |
| 2026-05-04 14:24 | 44.85420 | -3.06659 | 36013 ft | 476 kts | 3° |
| 2026-05-04 14:25 | 44.91977 | -3.05967 | 36010 ft | 476 kts | 3° |
| 2026-05-04 14:25 | 45.01888 | -3.04924 | 36013 ft | 476 kts | 3° |
| 2026-05-04 14:26 | 45.08502 | -3.04218 | 36012 ft | 476 kts | 3° |
| 2026-05-04 14:26 | 45.15112 | -3.03505 | 36009 ft | 475 kts | 3° |
| 2026-05-04 14:27 | 45.21717 | -3.02802 | 36006 ft | 475 kts | 3° |
| 2026-05-04 14:27 | 45.28312 | -3.02093 | 36006 ft | 475 kts | 5° |
| 2026-05-04 14:28 | 45.34689 | -2.99918 | 36001 ft | 476 kts | 23° |
| 2026-05-04 14:28 | 45.40753 | -2.96119 | 35999 ft | 476 kts | 24° |
| 2026-05-04 14:29 | 45.52899 | -2.88541 | 35994 ft | 476 kts | 24° |
| 2026-05-04 14:30 | 45.58981 | -2.84733 | 35993 ft | 477 kts | 24° |
| 2026-05-04 14:31 | 45.68099 | -2.79004 | 35986 ft | 477 kts | 24° |
| 2026-05-04 14:32 | 45.80251 | -2.71318 | 35987 ft | 477 kts | 24° |
| 2026-05-04 14:32 | 45.86285 | -2.67495 | 35986 ft | 477 kts | 24° |
| 2026-05-04 14:33 | 45.92364 | -2.63638 | 35983 ft | 478 kts | 24° |
| 2026-05-04 14:33 | 45.98436 | -2.59766 | 35984 ft | 478 kts | 24° |
| 2026-05-04 14:34 | 46.04515 | -2.55878 | 35983 ft | 478 kts | 24° |
| 2026-05-04 14:34 | 46.10588 | -2.51984 | 35983 ft | 477 kts | 24° |
| 2026-05-04 14:35 | 46.16712 | -2.48300 | 35981 ft | 477 kts | 16° |
| 2026-05-04 14:35 | 46.23240 | -2.46672 | 35983 ft | 475 kts | 5° |
| 2026-05-04 14:36 | 46.29812 | -2.45637 | 35986 ft | 475 kts | 6° |
| 2026-05-04 14:36 | 46.36384 | -2.44587 | 35986 ft | 475 kts | 6° |
| 2026-05-04 14:37 | 46.42949 | -2.43522 | 35987 ft | 474 kts | 6° |
| 2026-05-04 14:37 | 46.49392 | -2.41841 | 35982 ft | 474 kts | 19° |
| 2026-05-04 14:38 | 46.55322 | -2.37752 | 35978 ft | 472 kts | 26° |
| 2026-05-04 14:38 | 46.58419 | -2.36196 | 35977 ft | 472 kts | 11° |
| 2026-05-04 14:38 | 46.61653 | -2.35381 | 35971 ft | 472 kts | 9° |
| 2026-05-04 14:39 | 46.68147 | -2.33797 | 35962 ft | 473 kts | 9° |
| 2026-05-04 14:39 | 46.74638 | -2.32178 | 35960 ft | 473 kts | 10° |
| 2026-05-04 14:40 | 46.84391 | -2.29690 | 35960 ft | 474 kts | 10° |
| 2026-05-04 14:40 | 46.90856 | -2.28041 | 35958 ft | 474 kts | 10° |
| 2026-05-04 14:41 | 46.97359 | -2.26400 | 35961 ft | 475 kts | 10° |
| 2026-05-04 14:42 | 47.10395 | -2.23077 | 35969 ft | 475 kts | 10° |
| 2026-05-04 14:42 | 47.16896 | -2.21413 | 35971 ft | 475 kts | 10° |
| 2026-05-04 14:43 | 47.23425 | -2.19734 | 35975 ft | 476 kts | 10° |
| 2026-05-04 14:43 | 47.29957 | -2.18056 | 35979 ft | 476 kts | 10° |
| 2026-05-04 14:44 | 47.36486 | -2.16379 | 35982 ft | 476 kts | 10° |
| 2026-05-04 14:44 | 47.43006 | -2.14690 | 35980 ft | 476 kts | 10° |
| 2026-05-04 14:45 | 47.49531 | -2.12991 | 35978 ft | 475 kts | 10° |
| 2026-05-04 14:45 | 47.56043 | -2.11293 | 35975 ft | 475 kts | 10° |
| 2026-05-04 14:46 | 47.62522 | -2.09614 | 35970 ft | 475 kts | 10° |
| 2026-05-04 14:46 | 47.69036 | -2.07912 | 35969 ft | 475 kts | 10° |
| 2026-05-04 14:47 | 47.75552 | -2.06196 | 35968 ft | 475 kts | 10° |
| 2026-05-04 14:47 | 47.82056 | -2.04485 | 35970 ft | 475 kts | 10° |
| 2026-05-04 14:48 | 47.88573 | -2.02766 | 35976 ft | 475 kts | 10° |
| 2026-05-04 14:48 | 47.95079 | -2.01054 | 35979 ft | 475 kts | 10° |
| 2026-05-04 14:49 | 48.01546 | -1.99352 | 35981 ft | 475 kts | 10° |
| 2026-05-04 14:49 | 48.08054 | -1.97618 | 35983 ft | 475 kts | 10° |
| 2026-05-04 14:50 | 48.14558 | -1.95878 | 35982 ft | 475 kts | 10° |
| 2026-05-04 14:50 | 48.21075 | -1.94137 | 35985 ft | 475 kts | 10° |
| 2026-05-04 14:51 | 48.27584 | -1.92401 | 35985 ft | 475 kts | 10° |
| 2026-05-04 14:51 | 48.34097 | -1.90662 | 35993 ft | 475 kts | 10° |
| 2026-05-04 14:52 | 48.40605 | -1.88913 | 36003 ft | 475 kts | 10° |
| 2026-05-04 14:52 | 48.47105 | -1.87158 | 36006 ft | 474 kts | 10° |
| 2026-05-04 14:53 | 48.53553 | -1.85405 | 36009 ft | 474 kts | 10° |
| 2026-05-04 14:53 | 48.60056 | -1.83640 | 36011 ft | 473 kts | 10° |
| 2026-05-04 14:54 | 48.66549 | -1.81888 | 36010 ft | 473 kts | 10° |
| 2026-05-04 14:54 | 48.72996 | -1.80145 | 36007 ft | 473 kts | 10° |
| 2026-05-04 14:55 | 48.79513 | -1.78367 | 36002 ft | 472 kts | 10° |
| 2026-05-04 14:55 | 48.85939 | -1.76602 | 35997 ft | 472 kts | 10° |
| 2026-05-04 14:56 | 48.92424 | -1.75141 | 35992 ft | 471 kts | 1° |
| 2026-05-04 14:56 | 48.98987 | -1.74895 | 35992 ft | 471 kts | 1° |
| 2026-05-04 14:57 | 49.05544 | -1.74645 | 35996 ft | 471 kts | 1° |
| 2026-05-04 14:57 | 49.12110 | -1.74392 | 36007 ft | 471 kts | 1° |
| 2026-05-04 14:58 | 49.18671 | -1.74141 | 36009 ft | 471 kts | 1° |
| 2026-05-04 14:58 | 49.24121 | -1.73936 | 36009 ft | 471 kts | 1° |
| 2026-05-04 14:59 | 49.31735 | -1.73649 | 36012 ft | 471 kts | 1° |
| 2026-05-04 15:00 | 49.40473 | -1.73306 | 36016 ft | 471 kts | 1° |
| 2026-05-04 15:00 | 49.47029 | -1.73052 | 36018 ft | 471 kts | 1° |
| 2026-05-04 15:01 | 49.56863 | -1.72665 | 36019 ft | 470 kts | 1° |
| 2026-05-04 15:01 | 49.63400 | -1.72362 | 36015 ft | 470 kts | 2° |
| 2026-05-04 15:02 | 49.69960 | -1.71801 | 36016 ft | 470 kts | 3° |
| 2026-05-04 15:02 | 49.76485 | -1.71167 | 36015 ft | 469 kts | 3° |
| 2026-05-04 15:03 | 49.79695 | -1.70872 | 35550 ft | 468 kts | 3° |
| 2026-05-04 15:03 | 49.82959 | -1.70583 | 34920 ft | 468 kts | 3° |
| 2026-05-04 15:03 | 49.86212 | -1.70301 | 34300 ft | 469 kts | 3° |
| 2026-05-04 15:03 | 49.89460 | -1.70026 | 33593 ft | 469 kts | 3° |
| 2026-05-04 15:04 | 49.92738 | -1.69751 | 32787 ft | 472 kts | 3° |
| 2026-05-04 15:04 | 49.96029 | -1.69477 | 32147 ft | 471 kts | 3° |
| 2026-05-04 15:04 | 49.99248 | -1.69071 | 31569 ft | 468 kts | 9° |
| 2026-05-04 15:04 | 50.02418 | -1.68002 | 30992 ft | 465 kts | 18° |
| 2026-05-04 15:05 | 50.05504 | -1.66506 | 30405 ft | 464 kts | 19° |
| 2026-05-04 15:05 | 50.08579 | -1.65008 | 29799 ft | 462 kts | 19° |
| 2026-05-04 15:05 | 50.11646 | -1.63518 | 29207 ft | 459 kts | 19° |
| 2026-05-04 15:05 | 50.14686 | -1.62044 | 28680 ft | 455 kts | 18° |
| 2026-05-04 15:06 | 50.17693 | -1.60589 | 28177 ft | 451 kts | 18° |
| 2026-05-04 15:06 | 50.20688 | -1.59137 | 27676 ft | 447 kts | 18° |
| 2026-05-04 15:06 | 50.23642 | -1.57700 | 27191 ft | 443 kts | 18° |
| 2026-05-04 15:07 | 50.29468 | -1.54857 | 26273 ft | 435 kts | 18° |
| 2026-05-04 15:07 | 50.32342 | -1.53447 | 25831 ft | 431 kts | 18° |
| 2026-05-04 15:07 | 50.35188 | -1.52047 | 25410 ft | 427 kts | 17° |
| 2026-05-04 15:07 | 50.38019 | -1.50658 | 25015 ft | 423 kts | 17° |
| 2026-05-04 15:08 | 50.40825 | -1.49282 | 24627 ft | 420 kts | 17° |
| 2026-05-04 15:08 | 50.43558 | -1.47942 | 24268 ft | 416 kts | 17° |
| 2026-05-04 15:08 | 50.46314 | -1.46585 | 23917 ft | 413 kts | 17° |
| 2026-05-04 15:08 | 50.49042 | -1.45238 | 23549 ft | 409 kts | 17° |
| 2026-05-04 15:09 | 50.51749 | -1.43904 | 23131 ft | 406 kts | 17° |
| 2026-05-04 15:09 | 50.54383 | -1.42346 | 22702 ft | 403 kts | 25° |
| 2026-05-04 15:09 | 50.56849 | -1.40276 | 22271 ft | 400 kts | 29° |
| 2026-05-04 15:10 | 50.61690 | -1.36109 | 21416 ft | 393 kts | 29° |
| 2026-05-04 15:10 | 50.64085 | -1.34052 | 21028 ft | 390 kts | 29° |
| 2026-05-04 15:10 | 50.68815 | -1.29984 | 20194 ft | 384 kts | 29° |
| 2026-05-04 15:11 | 50.71146 | -1.27974 | 19802 ft | 381 kts | 29° |
| 2026-05-04 15:11 | 50.73469 | -1.25970 | 19389 ft | 378 kts | 29° |
| 2026-05-04 15:11 | 50.75738 | -1.24010 | 18971 ft | 375 kts | 30° |
| 2026-05-04 15:11 | 50.78009 | -1.21932 | 18550 ft | 372 kts | 32° |
| 2026-05-04 15:12 | 50.80168 | -1.19773 | 18120 ft | 369 kts | 34° |
| 2026-05-04 15:12 | 50.82296 | -1.17537 | 17649 ft | 366 kts | 35° |
| 2026-05-04 15:12 | 50.84397 | -1.15294 | 17184 ft | 363 kts | 35° |
| 2026-05-04 15:12 | 50.86474 | -1.13082 | 16732 ft | 361 kts | 34° |
| 2026-05-04 15:13 | 50.88567 | -1.10873 | 16283 ft | 358 kts | 34° |
| 2026-05-04 15:13 | 50.90515 | -1.08831 | 15865 ft | 356 kts | 34° |
| 2026-05-04 15:13 | 50.92554 | -1.06707 | 15438 ft | 353 kts | 34° |
| 2026-05-04 15:13 | 50.94641 | -1.04545 | 14995 ft | 351 kts | 33° |
| 2026-05-04 15:14 | 50.96681 | -1.02435 | 14579 ft | 349 kts | 33° |
| 2026-05-04 15:14 | 50.98704 | -1.00340 | 14164 ft | 347 kts | 33° |
| 2026-05-04 15:14 | 51.00641 | -0.98092 | 13749 ft | 344 kts | 42° |
| 2026-05-04 15:14 | 51.02284 | -0.95361 | 13292 ft | 341 kts | 49° |
| 2026-05-04 15:15 | 51.03838 | -0.92596 | 12864 ft | 339 kts | 49° |
| 2026-05-04 15:15 | 51.05402 | -0.89807 | 12440 ft | 336 kts | 49° |
| 2026-05-04 15:15 | 51.06948 | -0.87054 | 12013 ft | 334 kts | 49° |
| 2026-05-04 15:16 | 51.10022 | -0.81574 | 11195 ft | 329 kts | 49° |
| 2026-05-04 15:16 | 51.11536 | -0.78867 | 10879 ft | 324 kts | 49° |
| 2026-05-04 15:16 | 51.14497 | -0.73547 | 10106 ft | 322 kts | 49° |
| 2026-05-04 15:17 | 51.15972 | -0.70904 | 9897 ft | 314 kts | 49° |
| 2026-05-04 15:17 | 51.18781 | -0.65872 | 9610 ft | 295 kts | 49° |
| 2026-05-04 15:17 | 51.19676 | -0.64267 | 9429 ft | 292 kts | 48° |
| 2026-05-04 15:18 | 51.21026 | -0.61855 | 9100 ft | 290 kts | 49° |
| 2026-05-04 15:18 | 51.22365 | -0.59450 | 8775 ft | 288 kts | 49° |
| 2026-05-04 15:18 | 51.23691 | -0.57060 | 8444 ft | 287 kts | 49° |
| 2026-05-04 15:19 | 51.26316 | -0.52295 | 7794 ft | 284 kts | 49° |
| 2026-05-04 15:19 | 51.27618 | -0.49940 | 7532 ft | 281 kts | 49° |
| 2026-05-04 15:19 | 51.30076 | -0.45349 | 7272 ft | 264 kts | 58° |
| 2026-05-04 15:20 | 51.30833 | -0.42747 | 7156 ft | 255 kts | 75° |
| 2026-05-04 15:20 | 51.31179 | -0.40637 | 7049 ft | 249 kts | 76° |
| 2026-05-04 15:20 | 51.31627 | -0.37926 | 6778 ft | 247 kts | 76° |
| 2026-05-04 15:20 | 51.32062 | -0.35302 | 6521 ft | 246 kts | 75° |
| 2026-05-04 15:21 | 51.32496 | -0.32669 | 6260 ft | 245 kts | 75° |
| 2026-05-04 15:21 | 51.32927 | -0.30051 | 6003 ft | 243 kts | 75° |
| 2026-05-04 15:21 | 51.33788 | -0.24840 | 5409 ft | 240 kts | 75° |
| 2026-05-04 15:22 | 51.34219 | -0.22272 | 5119 ft | 238 kts | 75° |
| 2026-05-04 15:22 | 51.34649 | -0.19730 | 4997 ft | 237 kts | 75° |
| 2026-05-04 15:22 | 51.35507 | -0.14652 | 4821 ft | 232 kts | 75° |
| 2026-05-04 15:23 | 51.36096 | -0.12353 | 4694 ft | 222 kts | 53° |
| 2026-05-04 15:23 | 51.37230 | -0.10801 | 4539 ft | 213 kts | 24° |
| 2026-05-04 15:23 | 51.38663 | -0.10313 | 4310 ft | 207 kts | 359° |
| 2026-05-04 15:23 | 51.40077 | -0.10360 | 4176 ft | 198 kts | 359° |
| 2026-05-04 15:24 | 51.42725 | -0.10415 | 3779 ft | 188 kts | 360° |
| 2026-05-04 15:24 | 51.45273 | -0.10936 | 3275 ft | 186 kts | 329° |
| 2026-05-04 15:25 | 51.46190 | -0.12363 | 3109 ft | 183 kts | 301° |
| 2026-05-04 15:25 | 51.46543 | -0.14287 | 3011 ft | 182 kts | 273° |
| 2026-05-04 15:25 | 51.46548 | -0.16308 | 3002 ft | 181 kts | 272° |
| 2026-05-04 15:26 | 51.46537 | -0.20312 | 2894 ft | 175 kts | 271° |
| 2026-05-04 15:26 | 51.46532 | -0.22233 | 2719 ft | 172 kts | 271° |
| 2026-05-04 15:26 | 51.46526 | -0.26034 | 2281 ft | 170 kts | 272° |
| 2026-05-04 15:27 | 51.46524 | -0.27907 | 2064 ft | 166 kts | 272° |
| 2026-05-04 15:27 | 51.46518 | -0.31579 | 1606 ft | 156 kts | 271° |
| 2026-05-04 15:28 | 51.46513 | -0.34938 | 1207 ft | 148 kts | 273° |
| 2026-05-04 15:28 | 51.46521 | -0.36555 | 998 ft | 146 kts | 272° |
| 2026-05-04 15:28 | 51.46513 | -0.39786 | 573 ft | 145 kts | 271° |
| 2026-05-04 15:29 | 51.46503 | -0.41384 | 384 ft | 143 kts | 273° |
| 2026-05-04 15:30 | 51.46490 | -0.46275 | 86 ft | 31 kts | 270° |
| 2026-05-04 15:30 | 51.46656 | -0.46969 | 87 ft | 17 kts | 278° |
| 2026-05-04 15:31 | 51.46658 | -0.47410 | 84 ft | 17 kts | 266° |
| 2026-05-04 15:31 | 51.46655 | -0.47611 | 81 ft | 19 kts | 268° |
| 2026-05-04 15:32 | 51.46653 | -0.48277 | 87 ft | 16 kts | 271° |
| 2026-05-04 15:32 | 51.46762 | -0.48470 | 85 ft | 16 kts | 1° |
| 2026-05-04 15:33 | 51.46877 | -0.48638 | 85 ft | 14 kts | 267° |
| 2026-05-04 15:34 | 51.46926 | -0.48716 | 85 ft | 0 kts | 0° |